Riffel, Illinois
Current Conditions -  °F | °C
As of 10:55 PM on Sunday 21 Dec 2014 (Local Time) from KFOA Reporting Station
Clear Clear  
Wind Chill:   Ceiling: Unl
Heat Index:   Visibility: 7mi
Dew Point: -2°   Wind: 3mph
Humidity: 86%   Direction: 110°ESE
Pressure: 30.02"   Gusts: NA
Location:  38.8267°N, 88.5024°W
Report Text: KFOA 220455Z AUTO 11003KT 7SM CLR 01/M01 A3002 RMK AO2 T00061015
Loading
Personal Weather Stations






























Interactive Weather Map New forecast layout! Learn more

10-Day Weather Forecast

Advertisements
Track Severe Weather on mobile